createdAt,value
2023-04-08T00:00:08.192Z,84.09
2023-04-08T00:02:37.437Z,84.02
2023-04-08T00:05:05.377Z,82.86
2023-04-08T00:07:32.610Z,80.05
2023-04-08T00:09:59.715Z,81.79
2023-04-08T00:12:26.845Z,80.38
2023-04-08T00:14:53.933Z,79.75
2023-04-08T00:17:21.331Z,78.69
2023-04-08T00:19:48.423Z,78.73
2023-04-08T00:22:15.602Z,77.35
2023-04-08T00:24:43.280Z,78.56
2023-04-08T00:27:10.497Z,78.58
2023-04-08T00:29:37.952Z,78.61
2023-04-08T00:32:05.208Z,78.10
2023-04-08T00:34:32.660Z,78.70
2023-04-08T00:36:59.869Z,80.03
2023-04-08T00:39:27.106Z,79.53
2023-04-08T00:41:54.761Z,80.10
2023-04-08T00:44:21.912Z,81.90
2023-04-08T00:46:49.192Z,83.32
2023-04-08T00:49:17.692Z,83.75
2023-04-08T00:51:44.900Z,84.65
2023-04-08T00:54:12.034Z,85.24
2023-04-08T00:56:39.582Z,86.58
2023-04-08T00:59:06.809Z,87.24
2023-04-08T01:01:48.343Z,87.35
2023-04-08T01:04:44.871Z,86.53
2023-04-08T01:07:30.442Z,86.21
2023-04-08T01:10:04.187Z,85.55
2023-04-08T01:12:33.586Z,84.04
2023-04-08T01:15:09.243Z,83.29
2023-04-08T01:17:38.602Z,83.40
2023-04-08T01:20:07.775Z,82.46
2023-04-08T01:23:06.886Z,83.58
2023-04-08T01:25:36.961Z,84.49
2023-04-08T01:28:16.799Z,83.33
2023-04-08T01:30:47.470Z,82.41
2023-04-08T01:33:17.264Z,81.40
2023-04-08T01:35:46.344Z,79.66
2023-04-08T01:38:18.184Z,79.20
2023-04-08T01:40:47.177Z,79.66
2023-04-08T01:43:16.897Z,80.87
2023-04-08T01:45:46.634Z,80.77
2023-04-08T01:48:15.121Z,81.43
2023-04-08T01:50:44.180Z,82.10
2023-04-08T01:53:13.594Z,82.55
2023-04-08T01:55:42.267Z,81.87
2023-04-08T01:58:17.364Z,82.43
2023-04-08T02:00:45.347Z,81.16
2023-04-08T02:03:17.872Z,80.11
2023-04-08T02:05:46.901Z,80.50
2023-04-08T02:08:14.180Z,81.09
2023-04-08T02:10:41.352Z,80.08
2023-04-08T02:13:08.950Z,80.03
2023-04-08T02:15:42.426Z,80.47
2023-04-08T02:18:35.170Z,81.03
2023-04-08T02:21:11.701Z,81.57
2023-04-08T02:23:39.716Z,80.84
2023-04-08T02:26:15.858Z,80.93
2023-04-08T02:28:43.508Z,80.75
2023-04-08T02:31:16.039Z,81.70
2023-04-08T02:33:46.835Z,81.79
2023-04-08T02:36:16.295Z,82.30
2023-04-08T02:38:49.245Z,81.36
2023-04-08T02:41:17.326Z,81.47
2023-04-08T02:43:44.437Z,80.99
2023-04-08T02:46:12.225Z,80.09
2023-04-08T02:48:39.396Z,80.67
2023-04-08T02:51:06.716Z,80.19
2023-04-08T02:53:33.891Z,80.67
2023-04-08T02:56:01.423Z,81.56
2023-04-08T02:58:28.624Z,80.52
2023-04-08T03:00:56.009Z,80.73
2023-04-08T03:03:28.656Z,81.08
2023-04-08T03:05:56.683Z,81.34
2023-04-08T03:08:24.347Z,82.37
2023-04-08T03:10:51.804Z,82.95
2023-04-08T03:13:18.946Z,83.38
2023-04-08T03:15:46.428Z,79.80
2023-04-08T03:18:13.897Z,78.58
2023-04-08T03:20:41.376Z,77.58
2023-04-08T03:23:08.533Z,76.98
2023-04-08T03:26:08.127Z,76.84
2023-04-08T03:28:35.750Z,76.93
2023-04-08T03:31:06.646Z,77.28
2023-04-08T03:33:33.813Z,77.55
2023-04-08T03:36:00.939Z,78.06
2023-04-08T03:38:28.141Z,78.35
2023-04-08T03:40:55.262Z,78.65
2023-04-08T03:43:22.380Z,78.90
2023-04-08T03:45:49.535Z,78.67
2023-04-08T03:48:17.135Z,79.14
2023-04-08T03:50:44.195Z,78.80
2023-04-08T03:53:12.333Z,78.34
2023-04-08T03:56:12.804Z,78.76
2023-04-08T03:58:39.864Z,78.80
2023-04-08T04:01:07.034Z,78.63
2023-04-08T04:03:34.531Z,77.85
2023-04-08T04:06:01.721Z,76.97
2023-04-08T04:08:28.783Z,75.42
2023-04-08T04:10:55.913Z,74.11
2023-04-08T04:13:23.029Z,73.28
2023-04-08T04:15:50.256Z,75.46
2023-04-08T04:18:17.467Z,75.87
2023-04-08T04:20:44.718Z,76.99
2023-04-08T04:23:12.022Z,75.97
2023-04-08T04:25:42.078Z,75.22
2023-04-08T04:28:10.220Z,75.09
2023-04-08T04:30:38.687Z,74.78
2023-04-08T04:33:06.959Z,76.22
2023-04-08T04:35:34.322Z,75.06
2023-04-08T04:38:01.706Z,74.29
2023-04-08T04:40:28.803Z,74.15
2023-04-08T04:42:56.093Z,74.01
2023-04-08T04:45:23.195Z,75.08
2023-04-08T04:47:50.375Z,74.18
2023-04-08T04:50:17.618Z,74.56
2023-04-08T04:52:44.826Z,76.42
2023-04-08T04:55:11.885Z,75.07
2023-04-08T04:57:39.046Z,75.69
2023-04-08T05:00:06.912Z,75.92
2023-04-08T05:02:34.311Z,77.03
2023-04-08T05:05:01.630Z,77.58
2023-04-08T05:07:28.850Z,77.19
2023-04-08T05:09:56.345Z,78.80
2023-04-08T05:12:23.414Z,78.74
2023-04-08T05:14:50.511Z,77.91
2023-04-08T05:17:17.763Z,77.66
2023-04-08T05:19:44.874Z,77.42
2023-04-08T05:22:11.941Z,77.61
2023-04-08T05:24:39.140Z,76.99
2023-04-08T05:27:06.741Z,76.32
2023-04-08T05:29:33.787Z,78.42
2023-04-08T05:32:01.169Z,77.52
2023-04-08T05:34:28.259Z,76.48
2023-04-08T05:36:55.508Z,74.57
2023-04-08T05:39:22.539Z,74.34
2023-04-08T05:41:49.880Z,73.19
2023-04-08T05:44:16.991Z,72.45
2023-04-08T05:46:44.169Z,71.34
2023-04-08T05:49:11.300Z,71.18
2023-04-08T05:51:39.637Z,70.06
2023-04-08T05:54:06.896Z,71.58
2023-04-08T05:56:34.054Z,71.64
2023-04-08T05:59:01.677Z,70.53
2023-04-08T06:01:28.926Z,70.42
2023-04-08T06:03:56.927Z,70.61
2023-04-08T06:06:26.154Z,69.04
2023-04-08T06:08:53.304Z,71.20
2023-04-08T06:11:20.526Z,68.26
2023-04-08T06:13:48.272Z,68.98
2023-04-08T06:16:20.337Z,67.68
2023-04-08T06:18:49.184Z,68.33
2023-04-08T06:21:17.045Z,68.89
2023-04-08T06:23:44.304Z,69.83
2023-04-08T06:26:11.422Z,69.90
2023-04-08T06:28:38.501Z,69.38
2023-04-08T06:31:06.328Z,69.56
2023-04-08T06:33:33.448Z,67.51
2023-04-08T06:36:04.542Z,66.43
2023-04-08T06:38:34.798Z,64.47
2023-04-08T06:41:05.592Z,63.35
2023-04-08T06:43:34.423Z,64.28
2023-04-08T06:46:01.774Z,63.59
2023-04-08T06:48:30.898Z,64.60
2023-04-08T06:50:59.299Z,63.46
2023-04-08T06:53:29.446Z,64.51
2023-04-08T06:55:56.633Z,62.66
2023-04-08T06:58:23.908Z,59.25
2023-04-08T07:00:51.085Z,61.18
2023-04-08T07:03:18.297Z,61.03
2023-04-08T07:05:45.510Z,62.00
2023-04-08T07:08:12.582Z,60.43
2023-04-08T07:10:39.788Z,62.30
2023-04-08T07:13:06.955Z,63.27
2023-04-08T07:15:34.103Z,59.18
2023-04-08T07:18:01.261Z,60.00
2023-04-08T07:20:29.281Z,59.04
2023-04-08T07:22:58.008Z,57.95
2023-04-08T07:25:25.117Z,58.33
2023-04-08T07:27:53.027Z,57.82
2023-04-08T07:30:20.453Z,57.81
2023-04-08T07:32:47.660Z,58.80
2023-04-08T07:35:14.998Z,58.64
2023-04-08T07:37:42.038Z,59.34
2023-04-08T07:40:09.754Z,59.88
2023-04-08T07:42:37.734Z,60.70
2023-04-08T07:45:06.229Z,60.85
2023-04-08T07:47:33.400Z,59.00
2023-04-08T07:50:00.508Z,59.61
2023-04-08T07:52:27.755Z,58.41
2023-04-08T07:54:54.806Z,58.47
2023-04-08T07:57:22.286Z,57.56
2023-04-08T07:59:49.510Z,57.64
2023-04-08T08:02:16.685Z,56.46
2023-04-08T08:04:44.068Z,57.64
2023-04-08T08:07:11.513Z,58.87
2023-04-08T08:09:38.631Z,53.55
2023-04-08T08:12:06.387Z,55.80
2023-04-08T08:14:33.447Z,55.28
2023-04-08T08:17:01.651Z,56.45
2023-04-08T08:19:28.700Z,57.51
2023-04-08T08:21:56.457Z,56.65
2023-04-08T08:24:23.666Z,54.72
2023-04-08T08:26:50.840Z,56.74
2023-04-08T08:29:17.933Z,57.92
2023-04-08T08:31:45.093Z,58.16
2023-04-08T08:34:12.191Z,56.41
2023-04-08T08:36:39.337Z,56.67
2023-04-08T08:39:06.448Z,58.81
2023-04-08T08:41:36.098Z,56.25
2023-04-08T08:44:05.593Z,55.69
2023-04-08T08:46:32.883Z,54.25
2023-04-08T08:49:00.393Z,54.57
2023-04-08T08:51:28.726Z,55.33
2023-04-08T08:53:55.854Z,50.85
2023-04-08T08:56:23.006Z,56.10
2023-04-08T08:58:50.040Z,52.77
2023-04-08T09:01:39.046Z,52.43
2023-04-08T09:04:20.877Z,52.89
2023-04-08T09:06:52.749Z,51.77
2023-04-08T09:09:20.108Z,54.41
2023-04-08T09:11:47.802Z,54.34
2023-04-08T09:14:22.814Z,53.75
2023-04-08T09:16:50.901Z,52.84
2023-04-08T09:19:18.158Z,53.47
2023-04-08T09:21:45.571Z,55.42
2023-04-08T09:25:21.792Z,55.60
2023-04-08T09:27:48.867Z,56.42
2023-04-08T09:30:16.665Z,55.86
2023-04-08T09:32:49.917Z,55.13
2023-04-08T09:35:18.563Z,57.56
2023-04-08T09:37:46.648Z,58.51
2023-04-08T09:40:16.391Z,59.92
2023-04-08T09:42:50.691Z,58.07
2023-04-08T10:17:26.727Z,56.22
2023-04-08T10:19:54.593Z,56.10
2023-04-08T10:22:46.270Z,55.16
2023-04-08T10:25:16.894Z,51.25
2023-04-08T10:27:45.596Z,51.18
2023-04-08T10:30:33.521Z,51.72
2023-04-08T10:33:01.600Z,51.44
2023-04-08T10:35:33.236Z,50.50
2023-04-08T10:38:01.415Z,52.95
2023-04-08T10:40:28.639Z,52.55
2023-04-08T10:42:59.485Z,51.77
2023-04-08T10:45:26.750Z,51.29
2023-04-08T10:47:53.866Z,50.47
2023-04-08T10:50:24.252Z,49.77
2023-04-08T10:52:53.359Z,51.50
2023-04-08T10:55:25.557Z,53.19
2023-04-08T10:57:54.181Z,51.32
2023-04-08T11:00:39.474Z,49.01
2023-04-08T11:03:08.792Z,48.64
2023-04-08T11:05:39.395Z,49.39
2023-04-08T11:08:06.702Z,51.07
2023-04-08T11:10:38.955Z,49.69
2023-04-08T11:13:13.024Z,52.83
2023-04-08T11:15:40.200Z,50.39
2023-04-08T11:18:07.462Z,48.00
2023-04-08T11:20:37.240Z,48.81
2023-04-08T11:23:04.343Z,52.54
2023-04-08T11:25:32.173Z,49.04
2023-04-08T11:28:00.539Z,50.72
2023-04-08T11:30:29.320Z,51.59
2023-04-08T11:32:57.136Z,50.56
2023-04-08T11:35:24.418Z,53.03
2023-04-08T11:37:52.863Z,48.49
2023-04-08T11:40:22.285Z,49.32
2023-04-08T11:42:50.348Z,50.97
2023-04-08T11:45:22.481Z,47.89
2023-04-08T11:47:49.904Z,48.02
2023-04-08T11:50:24.916Z,49.98
2023-04-08T11:52:53.064Z,48.14
2023-04-08T11:55:23.077Z,50.44
2023-04-08T11:57:51.251Z,50.20
2023-04-08T12:00:19.321Z,49.49
2023-04-08T12:02:49.700Z,48.90
2023-04-08T12:05:17.799Z,50.81
2023-04-08T12:07:45.052Z,51.29
2023-04-08T12:10:12.477Z,52.44
2023-04-08T12:12:40.283Z,49.91
2023-04-08T12:15:08.530Z,51.28
2023-04-08T12:17:36.270Z,51.25
2023-04-08T12:20:04.418Z,50.65
2023-04-08T12:22:31.530Z,50.41
2023-04-08T12:24:59.289Z,51.48
2023-04-08T12:27:26.567Z,50.67
2023-04-08T12:29:53.603Z,52.48
2023-04-08T12:32:20.813Z,48.82
2023-04-08T12:34:47.974Z,49.88
2023-04-08T12:37:15.049Z,51.76
2023-04-08T12:39:42.108Z,49.46
2023-04-08T12:42:09.346Z,51.24
2023-04-08T12:44:36.548Z,51.66
2023-04-08T12:47:03.720Z,51.57
2023-04-08T12:49:39.521Z,51.79
2023-04-08T12:52:15.664Z,48.88
2023-04-08T12:54:42.743Z,52.46
2023-04-08T12:57:09.841Z,49.23
2023-04-08T12:59:38.195Z,51.17
2023-04-08T13:02:05.498Z,50.38
2023-04-08T13:04:32.641Z,50.89
2023-04-08T13:07:01.089Z,52.81
2023-04-08T13:09:28.523Z,52.85
2023-04-08T13:11:55.636Z,52.31
2023-04-08T13:14:22.703Z,53.16
2023-04-08T13:16:50.032Z,55.06
2023-04-08T13:19:17.191Z,55.15
2023-04-08T13:21:46.091Z,53.85
2023-04-08T13:24:13.563Z,54.71
2023-04-08T13:26:40.917Z,53.90
2023-04-08T13:29:07.959Z,54.31
2023-04-08T13:31:35.085Z,55.01
2023-04-08T13:34:02.251Z,54.33
2023-04-08T13:36:29.415Z,55.02
2023-04-08T13:38:56.898Z,56.48
2023-04-08T13:41:25.564Z,58.03
2023-04-08T13:43:52.753Z,58.28
2023-04-08T13:46:19.830Z,60.01
2023-04-08T13:48:46.981Z,59.07
2023-04-08T13:51:14.064Z,59.25
2023-04-08T13:53:41.117Z,60.16
2023-04-08T13:56:08.400Z,60.68
2023-04-08T13:58:38.145Z,60.91
2023-04-08T14:01:05.963Z,61.20
2023-04-08T14:03:33.384Z,61.64
2023-04-08T14:06:02.020Z,62.75
2023-04-08T14:08:29.306Z,63.06
2023-04-08T14:10:57.701Z,63.85
2023-04-08T14:13:24.863Z,64.30
2023-04-08T14:15:53.827Z,65.42
2023-04-08T14:18:21.026Z,64.96
2023-04-08T14:20:48.146Z,65.21
2023-04-08T14:23:17.087Z,65.11
2023-04-08T14:25:44.245Z,64.62
2023-04-08T14:28:11.657Z,65.32
2023-04-08T14:30:38.789Z,65.86
2023-04-08T14:33:06.432Z,66.45
2023-04-08T14:35:33.803Z,66.58
2023-04-08T14:38:01.273Z,66.15
2023-04-08T14:40:28.478Z,65.78
2023-04-08T14:42:55.557Z,64.54
2023-04-08T14:45:22.634Z,64.55
2023-04-08T14:47:49.749Z,66.00
2023-04-08T14:50:17.009Z,66.30
2023-04-08T14:52:45.473Z,67.40
2023-04-08T14:55:12.663Z,67.97
2023-04-08T14:57:39.801Z,68.07
2023-04-08T15:00:07.780Z,68.09
2023-04-08T15:02:34.953Z,68.40
2023-04-08T15:05:02.170Z,68.39
2023-04-08T15:07:29.244Z,68.21
2023-04-08T15:09:57.149Z,69.26
2023-04-08T15:12:24.660Z,68.42
2023-04-08T15:14:51.804Z,68.63
2023-04-08T15:17:19.058Z,69.40
2023-04-08T15:19:46.943Z,70.14
2023-04-08T15:22:14.072Z,71.02
2023-04-08T15:24:42.710Z,71.45
2023-04-08T15:27:09.943Z,71.66
2023-04-08T15:29:37.134Z,72.07
2023-04-08T15:32:04.248Z,70.92
2023-04-08T15:34:31.346Z,70.18
2023-04-08T15:36:58.611Z,69.85
2023-04-08T15:39:26.032Z,69.25
2023-04-08T15:41:53.398Z,69.87
2023-04-08T15:44:20.722Z,70.67
2023-04-08T15:46:47.874Z,72.46
2023-04-08T15:49:15.047Z,71.34
2023-04-08T15:51:44.676Z,71.72
2023-04-08T15:54:11.960Z,71.01
2023-04-08T15:56:39.085Z,71.54
2023-04-08T15:59:06.415Z,71.68
2023-04-08T16:01:33.906Z,74.14
2023-04-08T16:04:01.307Z,73.68
2023-04-08T16:06:28.570Z,72.80
2023-04-08T16:08:56.885Z,71.66
2023-04-08T16:11:25.353Z,71.75
2023-04-08T16:13:52.855Z,72.63
2023-04-08T16:16:20.193Z,73.22
2023-04-08T16:18:47.626Z,74.58
2023-04-08T16:21:14.917Z,74.32
2023-04-08T16:23:42.191Z,74.87
2023-04-08T16:26:09.305Z,74.20
2023-04-08T16:28:37.291Z,74.58
2023-04-08T16:31:04.485Z,74.56
2023-04-08T16:33:32.254Z,74.69
2023-04-08T16:36:00.694Z,74.91
2023-04-08T16:38:28.067Z,75.66
2023-04-08T16:40:58.555Z,76.38
2023-04-08T16:43:26.359Z,76.76
2023-04-08T16:45:54.178Z,77.99
2023-04-08T16:48:21.384Z,79.49
2023-04-08T16:50:48.434Z,80.21
2023-04-08T16:53:15.734Z,79.58
2023-04-08T16:55:42.774Z,78.54
2023-04-08T16:58:10.000Z,78.33
2023-04-08T17:00:37.774Z,78.51
2023-04-08T17:03:05.055Z,78.58
2023-04-08T17:05:32.252Z,78.95
2023-04-08T17:07:59.639Z,78.37
2023-04-08T17:10:26.894Z,77.54
2023-04-08T17:12:54.006Z,77.87
2023-04-08T17:15:21.256Z,78.39
2023-04-08T17:17:48.732Z,78.02
2023-04-08T17:20:15.860Z,78.69
2023-04-08T17:22:43.323Z,77.96
2023-04-08T17:25:10.935Z,77.86
2023-04-08T17:27:38.041Z,77.44
2023-04-08T17:30:05.594Z,78.44
2023-04-08T17:32:33.017Z,78.68
2023-04-08T17:35:00.156Z,79.08
2023-04-08T17:37:27.267Z,78.91
2023-04-08T17:39:54.383Z,78.31
2023-04-08T17:42:22.984Z,77.92
2023-04-08T17:44:50.099Z,78.42
2023-04-08T17:47:17.382Z,78.29
2023-04-08T17:49:44.528Z,78.65
2023-04-08T17:52:11.863Z,78.90
2023-04-08T17:54:39.157Z,78.46
2023-04-08T17:57:06.510Z,78.45
2023-04-08T17:59:34.165Z,78.67
2023-04-08T18:02:01.382Z,78.69
2023-04-08T18:04:29.978Z,78.96
2023-04-08T18:06:57.309Z,79.08
2023-04-08T18:09:24.390Z,78.99
2023-04-08T18:11:51.536Z,79.12
2023-04-08T18:15:27.687Z,78.95
2023-04-08T18:17:56.036Z,80.19
2023-04-08T18:20:23.168Z,79.92
2023-04-08T18:22:50.316Z,79.97
2023-04-08T18:25:17.673Z,79.36
2023-04-08T18:27:44.829Z,78.95
2023-04-08T18:30:12.224Z,79.77
2023-04-08T18:32:39.293Z,80.18
2023-04-08T18:35:06.621Z,81.61
2023-04-08T18:37:34.752Z,81.26
2023-04-08T18:40:03.822Z,80.34
2023-04-08T18:42:31.738Z,79.72
2023-04-08T18:44:58.839Z,80.02
2023-04-08T18:51:55.484Z,80.42
2023-04-08T18:54:28.773Z,80.13
2023-04-08T18:56:56.662Z,80.22
2023-04-08T18:59:23.816Z,79.71
2023-04-08T19:01:51.203Z,80.02
2023-04-08T19:04:18.433Z,80.53
2023-04-08T19:06:45.623Z,79.98
2023-04-08T19:09:14.464Z,80.09
2023-04-08T19:11:41.719Z,79.63
2023-04-08T19:14:08.952Z,78.69
2023-04-08T19:16:36.090Z,78.75
2023-04-08T19:19:03.605Z,80.01
2023-04-08T19:21:31.894Z,81.73
2023-04-08T19:23:59.074Z,81.86
2023-04-08T19:26:26.195Z,82.23
2023-04-08T19:28:53.427Z,84.47
2023-04-08T19:31:21.663Z,86.60
2023-04-08T19:33:48.968Z,85.89
2023-04-08T19:36:16.390Z,87.08
2023-04-08T19:38:43.494Z,85.66
2023-04-08T19:41:11.083Z,84.40
2023-04-08T19:43:38.220Z,84.23
2023-04-08T19:47:14.037Z,86.92
2023-04-08T19:49:41.131Z,86.70
2023-04-08T19:52:08.257Z,85.68
2023-04-08T19:54:35.522Z,85.26
2023-04-08T19:57:02.692Z,83.80
2023-04-08T19:59:29.864Z,85.85
2023-04-08T20:01:57.012Z,87.26
2023-04-08T20:04:24.345Z,88.88
2023-04-08T20:06:51.625Z,86.97
2023-04-08T20:09:18.721Z,86.15
2023-04-08T20:11:45.809Z,85.51
2023-04-08T20:14:13.011Z,84.97
2023-04-08T20:16:40.177Z,83.14
2023-04-08T20:19:07.257Z,86.68
2023-04-08T20:21:56.309Z,88.53
2023-04-08T20:24:23.871Z,87.61
2023-04-08T20:26:52.504Z,87.05
2023-04-08T20:29:19.893Z,87.44
2023-04-08T20:31:47.557Z,89.91
2023-04-08T20:34:14.826Z,90.76
2023-04-08T20:36:42.413Z,91.95
2023-04-08T20:39:12.929Z,90.57
2023-04-08T20:41:40.043Z,89.56
2023-04-08T20:44:09.817Z,89.16
2023-04-08T20:46:37.933Z,88.27
2023-04-08T20:49:05.871Z,88.42
2023-04-08T20:51:33.893Z,88.30
2023-04-08T20:54:01.174Z,88.72
2023-04-08T20:56:28.556Z,89.97
2023-04-08T20:58:58.238Z,90.43
2023-04-08T21:01:27.089Z,91.44
2023-04-08T21:07:45.030Z,92.98
2023-04-08T21:10:14.892Z,92.17
2023-04-08T21:12:41.959Z,92.60
2023-04-08T21:15:09.777Z,93.07
2023-04-08T21:17:37.426Z,91.35
2023-04-08T21:20:05.533Z,91.17
2023-04-08T21:22:32.935Z,90.68
2023-04-08T21:25:00.225Z,89.90
2023-04-08T21:27:29.290Z,89.32
2023-04-08T21:29:56.760Z,92.05
2023-04-08T21:32:24.439Z,93.53
2023-04-08T21:34:54.660Z,94.02
2023-04-08T21:37:22.890Z,92.87
2023-04-08T21:39:50.514Z,93.35
2023-04-08T21:42:17.873Z,93.46
2023-04-08T21:44:44.928Z,92.01
2023-04-08T21:47:12.020Z,92.94
2023-04-08T21:49:39.149Z,93.45
2023-04-08T21:52:06.886Z,92.52
2023-04-08T21:54:34.103Z,93.46
2023-04-08T21:57:01.620Z,92.98
2023-04-08T21:59:28.763Z,92.81
2023-04-08T22:01:56.764Z,91.51
2023-04-08T22:04:23.909Z,91.35
2023-04-08T22:06:51.406Z,90.98
2023-04-08T22:09:19.513Z,90.55
2023-04-08T22:11:46.596Z,90.92
2023-04-08T22:14:14.122Z,89.01
2023-04-08T22:16:41.859Z,88.80
2023-04-08T22:19:09.061Z,87.88
2023-04-08T22:21:36.490Z,89.29
2023-04-08T22:24:03.703Z,90.02
2023-04-08T22:26:30.814Z,89.20
2023-04-08T22:28:57.892Z,87.99
2023-04-08T22:31:25.053Z,87.51
2023-04-08T22:33:52.340Z,89.38
2023-04-08T22:36:19.533Z,88.57
2023-04-08T22:38:46.624Z,87.47
2023-04-08T22:41:23.827Z,87.11
2023-04-08T22:43:51.497Z,87.78
2023-04-08T22:46:20.211Z,90.76
2023-04-08T22:48:48.513Z,92.44
2023-04-08T22:51:15.814Z,93.85
2023-04-08T22:53:43.859Z,94.30
2023-04-08T22:56:11.147Z,94.26
2023-04-08T22:58:38.250Z,94.01
2023-04-08T23:01:17.264Z,96.19
2023-04-08T23:03:44.810Z,97.53
2023-04-08T23:06:11.932Z,98.04
2023-04-08T23:08:39.387Z,97.71
2023-04-08T23:11:07.252Z,97.97
2023-04-08T23:13:34.853Z,98.83
2023-04-08T23:16:02.507Z,99.61
2023-04-08T23:18:29.801Z,99.93
2023-04-08T23:20:58.216Z,99.49
2023-04-08T23:23:25.792Z,99.04
2023-04-08T23:25:55.717Z,99.72
2023-04-08T23:28:23.419Z,100.00
2023-04-08T23:30:50.529Z,100.00
2023-04-08T23:33:17.762Z,100.00
2023-04-08T23:35:45.159Z,100.00
2023-04-08T23:38:12.347Z,100.00
2023-04-08T23:40:39.621Z,100.00
2023-04-08T23:43:06.704Z,100.00
2023-04-08T23:45:33.816Z,100.00
2023-04-08T23:48:01.018Z,100.00
2023-04-08T23:50:28.378Z,100.00
2023-04-08T23:52:55.509Z,99.30
2023-04-08T23:55:22.608Z,98.83
2023-04-08T23:57:50.955Z,98.68
